createdAt,value
2018-06-08T00:01:14.396Z,73.74
2018-06-08T00:03:43.215Z,74.04
2018-06-08T00:06:12.069Z,74.01
2018-06-08T00:08:40.947Z,73.30
2018-06-08T00:11:09.851Z,73.88
2018-06-08T00:13:38.953Z,73.30
2018-06-08T00:16:07.914Z,73.71
2018-06-08T00:18:36.755Z,74.13
2018-06-08T00:21:05.789Z,73.80
2018-06-08T00:23:34.803Z,74.13
2018-06-08T00:26:03.826Z,74.50
2018-06-08T00:28:34.378Z,74.39
2018-06-08T00:31:03.239Z,74.72
2018-06-08T00:33:32.458Z,74.56
2018-06-08T00:36:01.330Z,74.70
2018-06-08T00:38:30.582Z,75.20
2018-06-08T00:40:59.631Z,75.42
2018-06-08T00:43:28.641Z,75.99
2018-06-08T00:45:57.573Z,76.06
2018-06-08T00:48:26.889Z,75.59
2018-06-08T00:50:55.903Z,75.41
2018-06-08T00:53:24.992Z,75.16
2018-06-08T00:55:54.115Z,75.28
2018-06-08T00:58:23.019Z,75.85
2018-06-08T01:00:51.896Z,75.89
2018-06-08T01:03:20.814Z,75.92
2018-06-08T01:05:49.827Z,76.00
2018-06-08T01:08:18.651Z,75.92
2018-06-08T01:10:47.507Z,76.15
2018-06-08T01:13:16.612Z,76.06
2018-06-08T01:15:45.490Z,76.33
2018-06-08T01:18:14.511Z,76.73
2018-06-08T01:20:43.269Z,77.15
2018-06-08T01:23:12.293Z,77.28
2018-06-08T01:25:41.326Z,77.26
2018-06-08T01:28:10.441Z,77.33
2018-06-08T01:30:39.727Z,77.33
2018-06-08T01:33:08.688Z,77.80
2018-06-08T01:35:37.763Z,77.96
2018-06-08T01:38:06.521Z,78.25
2018-06-08T01:40:35.390Z,78.07
2018-06-08T01:43:04.406Z,77.94
2018-06-08T01:45:33.211Z,77.75
2018-06-08T01:48:02.133Z,77.93
2018-06-08T01:50:31.197Z,77.25
2018-06-08T01:53:00.499Z,77.49
2018-06-08T01:55:29.798Z,77.33
2018-06-08T01:57:58.659Z,77.29
2018-06-08T02:00:27.458Z,77.14
2018-06-08T02:02:56.525Z,77.28
2018-06-08T02:05:25.358Z,77.01
2018-06-08T02:07:54.751Z,77.60
2018-06-08T02:10:23.626Z,78.37
2018-06-08T02:12:52.636Z,77.94
2018-06-08T02:15:21.702Z,77.96
2018-06-08T02:17:50.704Z,78.12
2018-06-08T02:20:19.773Z,77.58
2018-06-08T02:22:48.809Z,77.70
2018-06-08T02:25:17.602Z,77.75
2018-06-08T02:27:46.590Z,77.88
2018-06-08T02:30:15.628Z,78.31
2018-06-08T02:32:44.430Z,78.13
2018-06-08T02:35:13.257Z,78.29
2018-06-08T02:37:42.376Z,77.75
2018-06-08T02:40:11.227Z,77.75
2018-06-08T02:42:40.152Z,78.13
2018-06-08T02:45:09.018Z,78.44
2018-06-08T02:47:37.804Z,78.24
2018-06-08T02:50:06.863Z,77.90
2018-06-08T02:52:35.758Z,78.33
2018-06-08T02:55:04.629Z,77.86
2018-06-08T02:57:33.653Z,78.06
2018-06-08T03:00:02.596Z,78.37
2018-06-08T03:02:31.565Z,77.93
2018-06-08T03:05:00.545Z,77.78
2018-06-08T03:07:29.443Z,78.43
2018-06-08T03:09:58.314Z,78.15
2018-06-08T03:12:27.312Z,78.20
2018-06-08T03:14:56.242Z,77.88
2018-06-08T03:17:25.382Z,77.87
2018-06-08T03:19:54.345Z,77.81
2018-06-08T03:22:23.694Z,78.05
2018-06-08T03:24:52.901Z,78.27
2018-06-08T03:27:21.901Z,77.98
2018-06-08T03:29:50.925Z,77.98
2018-06-08T03:32:19.789Z,78.50
2018-06-08T03:34:48.971Z,78.39
2018-06-08T03:37:18.062Z,78.25
2018-06-08T03:39:47.014Z,77.94
2018-06-08T03:42:16.180Z,77.92
2018-06-08T03:44:45.142Z,78.12
2018-06-08T03:47:14.233Z,78.48
2018-06-08T03:49:43.550Z,78.25
2018-06-08T03:52:12.519Z,77.99
2018-06-08T03:54:41.431Z,78.29
2018-06-08T03:57:10.375Z,78.00
2018-06-08T03:59:39.261Z,78.03
2018-06-08T04:02:08.381Z,77.92
2018-06-08T04:04:37.519Z,77.53
2018-06-08T04:07:06.583Z,77.77
2018-06-08T04:09:35.642Z,76.72
2018-06-08T04:12:04.522Z,76.66
2018-06-08T04:14:33.585Z,77.40
2018-06-08T04:17:02.850Z,76.81
2018-06-08T04:19:31.693Z,76.33
2018-06-08T04:22:00.715Z,76.09
2018-06-08T04:24:29.710Z,75.75
2018-06-08T04:26:58.932Z,75.71
2018-06-08T04:29:27.770Z,75.18
2018-06-08T04:31:56.516Z,75.08
2018-06-08T04:34:25.408Z,75.01
2018-06-08T04:36:54.424Z,74.98
2018-06-08T04:39:23.258Z,75.93
2018-06-08T04:41:52.307Z,75.10
2018-06-08T04:44:21.427Z,75.24
2018-06-08T04:46:50.634Z,74.77
2018-06-08T04:49:19.497Z,74.80
2018-06-08T04:51:48.494Z,75.31
2018-06-08T04:54:17.487Z,73.68
2018-06-08T04:56:46.405Z,74.14
2018-06-08T04:59:15.426Z,73.95
2018-06-08T05:01:44.601Z,73.23
2018-06-08T05:04:13.931Z,73.22
2018-06-08T05:06:42.922Z,73.46
2018-06-08T05:09:12.109Z,72.94
2018-06-08T05:11:41.004Z,73.12
2018-06-08T05:14:10.154Z,73.26
2018-06-08T05:16:39.055Z,72.48
2018-06-08T05:19:08.081Z,71.86
2018-06-08T05:21:37.097Z,71.60
2018-06-08T05:24:06.240Z,70.76
2018-06-08T05:26:35.254Z,70.76
2018-06-08T05:29:04.389Z,70.49
2018-06-08T05:31:33.373Z,70.38
2018-06-08T05:34:03.341Z,70.11
2018-06-08T05:36:32.276Z,69.94
2018-06-08T05:39:01.585Z,69.43
2018-06-08T05:41:30.553Z,69.45
2018-06-08T05:43:59.553Z,69.90
2018-06-08T05:46:28.403Z,70.36
2018-06-08T05:48:57.742Z,69.06
2018-06-08T05:51:26.732Z,69.21
2018-06-08T05:53:56.019Z,67.71
2018-06-08T05:56:24.884Z,68.42
2018-06-08T05:58:53.674Z,68.53
2018-06-08T06:01:22.785Z,68.60
2018-06-08T06:03:51.746Z,68.38
2018-06-08T06:06:20.734Z,68.12
2018-06-08T06:08:49.614Z,67.50
2018-06-08T06:11:18.671Z,66.96
2018-06-08T06:13:47.582Z,67.18
2018-06-08T06:16:16.518Z,66.73
2018-06-08T06:18:45.362Z,66.01
2018-06-08T06:21:14.302Z,65.68
2018-06-08T06:23:43.417Z,67.04
2018-06-08T06:26:12.426Z,66.34
2018-06-08T06:28:41.621Z,66.25
2018-06-08T06:31:10.495Z,66.05
2018-06-08T06:33:39.589Z,66.08
2018-06-08T06:36:08.552Z,66.31
2018-06-08T06:38:37.421Z,66.13
2018-06-08T06:41:06.259Z,65.82
2018-06-08T06:43:35.177Z,65.39
2018-06-08T06:46:04.207Z,65.99
2018-06-08T06:48:32.989Z,65.55
2018-06-08T06:51:02.064Z,64.74
2018-06-08T06:53:31.073Z,64.69
2018-06-08T06:56:00.126Z,65.40
2018-06-08T06:58:28.823Z,65.14
2018-06-08T07:00:57.695Z,65.10
2018-06-08T07:03:26.510Z,65.25
2018-06-08T07:05:56.289Z,64.94
2018-06-08T07:08:25.209Z,64.86
2018-06-08T07:10:54.081Z,64.26
2018-06-08T07:13:23.190Z,64.50
2018-06-08T07:15:52.390Z,63.66
2018-06-08T07:18:21.618Z,63.89
2018-06-08T07:20:50.362Z,63.51
2018-06-08T07:23:19.402Z,64.56
2018-06-08T07:25:48.572Z,64.11
2018-06-08T07:28:17.748Z,63.51
2018-06-08T07:30:46.703Z,62.97
2018-06-08T07:33:15.675Z,62.78
2018-06-08T07:35:44.781Z,63.09
2018-06-08T07:38:13.510Z,62.84
2018-06-08T07:40:42.426Z,62.65
2018-06-08T07:43:11.695Z,62.41
2018-06-08T07:45:40.820Z,62.67
2018-06-08T07:48:10.458Z,62.15
2018-06-08T07:50:39.409Z,61.31
2018-06-08T07:53:08.235Z,61.19
2018-06-08T07:55:37.148Z,61.32
2018-06-08T07:58:06.224Z,61.99
2018-06-08T08:00:35.401Z,61.87
2018-06-08T08:03:04.492Z,62.09
2018-06-08T08:05:33.799Z,61.85
2018-06-08T08:08:02.512Z,62.41
2018-06-08T08:10:31.586Z,61.79
2018-06-08T08:13:00.736Z,60.78
2018-06-08T08:15:29.740Z,60.38
2018-06-08T08:18:05.586Z,59.79
2018-06-08T08:20:35.188Z,59.66
2018-06-08T08:23:04.743Z,60.10
2018-06-08T08:25:33.454Z,60.31
2018-06-08T08:28:02.225Z,59.43
2018-06-08T08:30:31.166Z,59.16
2018-06-08T08:33:00.144Z,59.08
2018-06-08T08:35:29.343Z,58.08
2018-06-08T08:37:58.279Z,57.89
2018-06-08T08:40:27.216Z,57.53
2018-06-08T08:42:56.158Z,59.40
2018-06-08T08:45:25.110Z,58.34
2018-06-08T08:47:53.984Z,57.38
2018-06-08T08:50:22.756Z,56.75
2018-06-08T08:52:51.838Z,57.11
2018-06-08T08:55:20.744Z,56.92
2018-06-08T08:57:49.601Z,57.47
2018-06-08T09:00:18.782Z,56.05
2018-06-08T09:02:47.570Z,55.25
2018-06-08T09:05:16.826Z,55.04
2018-06-08T09:07:45.687Z,55.04
2018-06-08T09:10:14.537Z,55.29
2018-06-08T09:12:43.254Z,54.91
2018-06-08T09:15:12.286Z,54.13
2018-06-08T09:17:41.309Z,53.01
2018-06-08T09:20:10.535Z,53.84
2018-06-08T09:22:39.649Z,52.19
2018-06-08T09:25:08.606Z,50.19
2018-06-08T09:27:37.660Z,49.77
2018-06-08T09:30:06.518Z,49.70
2018-06-08T09:32:35.369Z,49.31
2018-06-08T09:35:04.254Z,48.51
2018-06-08T09:37:33.165Z,48.66
2018-06-08T09:40:02.294Z,47.78
2018-06-08T09:42:31.033Z,45.04
2018-06-08T09:45:00.979Z,46.93
2018-06-08T09:47:30.150Z,47.32
2018-06-08T09:49:58.908Z,45.93
2018-06-08T09:52:27.915Z,47.09
2018-06-08T09:54:56.680Z,44.52
2018-06-08T09:57:25.859Z,45.99
2018-06-08T09:59:55.116Z,45.90
2018-06-08T10:02:23.974Z,46.06
2018-06-08T10:04:52.802Z,45.98
2018-06-08T10:07:21.627Z,43.88
2018-06-08T10:09:50.659Z,45.72
2018-06-08T10:12:19.631Z,44.36
2018-06-08T10:14:48.820Z,43.41
2018-06-08T10:17:18.075Z,43.08
2018-06-08T10:19:46.925Z,45.31
2018-06-08T10:22:15.918Z,43.38
2018-06-08T10:24:44.917Z,41.34
2018-06-08T10:27:13.733Z,42.03
2018-06-08T10:29:42.445Z,40.49
2018-06-08T10:32:11.806Z,39.77
2018-06-08T10:34:40.740Z,40.56
2018-06-08T10:37:09.442Z,40.75
2018-06-08T10:39:38.465Z,38.83
2018-06-08T10:42:07.242Z,38.43
2018-06-08T10:44:36.159Z,39.20
2018-06-08T10:47:04.898Z,42.29
2018-06-08T10:49:34.033Z,42.76
2018-06-08T10:52:03.098Z,39.93
2018-06-08T10:54:32.293Z,42.02
2018-06-08T10:57:01.128Z,40.31
2018-06-08T10:59:30.047Z,40.20
2018-06-08T11:01:59.226Z,44.22
2018-06-08T11:04:29.434Z,42.19
2018-06-08T11:06:58.150Z,40.74
2018-06-08T11:09:27.066Z,42.46
2018-06-08T11:11:55.932Z,41.18
2018-06-08T11:14:25.068Z,41.01
2018-06-08T11:16:54.078Z,40.54
2018-06-08T11:19:23.176Z,40.47
2018-06-08T11:21:52.003Z,40.22
2018-06-08T11:24:21.101Z,41.21
2018-06-08T11:26:50.292Z,40.81
2018-06-08T11:29:19.170Z,40.48
2018-06-08T11:31:48.708Z,40.74
2018-06-08T11:34:17.969Z,41.73
2018-06-08T11:36:46.727Z,41.94
2018-06-08T11:39:15.505Z,42.08
2018-06-08T11:41:44.438Z,40.41
2018-06-08T11:44:13.529Z,38.30
2018-06-08T11:46:42.555Z,39.91
2018-06-08T11:49:11.339Z,39.24
2018-06-08T11:51:40.340Z,39.16
2018-06-08T11:54:09.841Z,36.13
2018-06-08T11:56:39.174Z,34.04
2018-06-08T11:59:08.429Z,33.30
2018-06-08T12:01:37.405Z,33.05
2018-06-08T12:04:06.475Z,33.12
2018-06-08T12:06:35.471Z,32.66
2018-06-08T12:09:06.466Z,30.01
2018-06-08T12:11:35.451Z,28.35
2018-06-08T12:14:04.698Z,27.82
2018-06-08T12:16:33.783Z,29.54
2018-06-08T12:19:02.835Z,28.49
2018-06-08T12:21:31.685Z,26.97
2018-06-08T12:24:00.928Z,27.06
2018-06-08T12:26:29.983Z,26.22
2018-06-08T12:28:59.283Z,24.98
2018-06-08T12:31:28.157Z,28.21
2018-06-08T12:33:57.628Z,26.70
2018-06-08T12:36:26.541Z,26.22
2018-06-08T12:38:55.600Z,25.29
2018-06-08T12:41:24.584Z,25.21
2018-06-08T12:43:54.013Z,24.78
2018-06-08T12:46:23.137Z,23.82
2018-06-08T12:48:52.302Z,23.16
2018-06-08T12:51:21.015Z,23.76
2018-06-08T12:53:50.292Z,24.58
2018-06-08T12:56:19.494Z,23.91
2018-06-08T12:58:48.565Z,23.35
2018-06-08T13:01:17.482Z,23.74
2018-06-08T13:03:46.621Z,24.01
2018-06-08T13:06:15.839Z,23.25
2018-06-08T13:08:44.631Z,23.67
2018-06-08T13:11:13.526Z,24.91
2018-06-08T13:13:42.665Z,23.34
2018-06-08T13:16:11.622Z,24.07
2018-06-08T13:18:40.647Z,22.73
2018-06-08T13:21:09.560Z,22.57
2018-06-08T13:23:39.150Z,21.25
2018-06-08T13:26:09.714Z,21.06
2018-06-08T13:28:38.582Z,22.16
2018-06-08T13:31:07.576Z,22.63
2018-06-08T13:33:36.841Z,21.74
2018-06-08T13:36:05.849Z,22.33
2018-06-08T13:38:34.651Z,23.29
2018-06-08T13:41:03.455Z,21.10
2018-06-08T13:43:32.522Z,21.50
2018-06-08T13:46:01.654Z,24.51
2018-06-08T13:48:30.523Z,25.31
2018-06-08T13:50:59.693Z,26.60
2018-06-08T13:53:28.529Z,29.28
2018-06-08T13:55:57.507Z,30.75
2018-06-08T13:58:26.230Z,30.85
2018-06-08T14:00:55.563Z,29.87
2018-06-08T14:03:24.359Z,30.86
2018-06-08T14:05:53.530Z,32.62
2018-06-08T14:08:22.729Z,32.06
2018-06-08T14:10:51.410Z,33.56
2018-06-08T14:13:20.469Z,33.51
2018-06-08T14:15:49.448Z,34.16
2018-06-08T14:18:18.401Z,34.31
2018-06-08T14:20:48.690Z,34.84
2018-06-08T14:23:17.769Z,36.42
2018-06-08T14:25:46.520Z,35.40
2018-06-08T14:28:15.572Z,35.50
2018-06-08T14:30:44.435Z,36.17
2018-06-08T14:33:13.426Z,34.98
2018-06-08T14:35:42.196Z,35.48
2018-06-08T14:38:11.104Z,35.19
2018-06-08T14:40:40.327Z,34.54
2018-06-08T14:43:09.793Z,34.27
2018-06-08T14:45:39.121Z,35.54
2018-06-08T14:48:07.993Z,34.45
2018-06-08T14:50:37.201Z,33.69
2018-06-08T14:53:06.148Z,33.53
2018-06-08T14:55:35.119Z,33.88
2018-06-08T14:58:03.947Z,32.91
2018-06-08T15:00:33.002Z,33.13
2018-06-08T15:03:01.869Z,32.42
2018-06-08T15:05:30.733Z,32.95
2018-06-08T15:07:59.898Z,32.73
2018-06-08T15:10:29.075Z,33.80
2018-06-08T15:12:57.940Z,35.08
2018-06-08T15:15:27.001Z,33.32
2018-06-08T15:17:55.956Z,33.23
2018-06-08T15:20:25.301Z,35.52
2018-06-08T15:22:54.590Z,35.12
2018-06-08T15:25:23.841Z,35.87
2018-06-08T15:27:52.635Z,36.09
2018-06-08T15:30:21.730Z,35.21
2018-06-08T15:32:50.817Z,34.70
2018-06-08T15:35:19.846Z,35.32
2018-06-08T15:37:48.715Z,35.79
2018-06-08T15:40:17.820Z,34.73
2018-06-08T15:42:47.117Z,33.18
2018-06-08T15:45:16.023Z,35.07
2018-06-08T15:47:45.206Z,34.28
2018-06-08T15:50:14.291Z,34.71
2018-06-08T15:52:43.467Z,34.32
2018-06-08T15:55:12.732Z,34.95
2018-06-08T15:57:42.834Z,33.00
2018-06-08T16:00:11.838Z,33.62
2018-06-08T16:02:41.002Z,32.58
2018-06-08T16:05:10.137Z,32.44
2018-06-08T16:07:38.975Z,32.10
2018-06-08T16:10:09.212Z,31.68
2018-06-08T16:12:38.221Z,32.14
2018-06-08T16:15:08.792Z,31.18
2018-06-08T16:17:37.889Z,30.09
2018-06-08T16:20:07.042Z,29.92
2018-06-08T16:22:35.823Z,30.30
2018-06-08T16:25:04.735Z,30.50
2018-06-08T16:27:33.909Z,31.80
2018-06-08T16:30:02.939Z,31.50
2018-06-08T16:32:32.143Z,32.79
2018-06-08T16:35:01.083Z,32.98
2018-06-08T16:37:30.504Z,32.57
2018-06-08T16:39:59.253Z,33.44
2018-06-08T16:42:28.094Z,33.26
2018-06-08T16:44:57.236Z,32.05
2018-06-08T16:47:26.199Z,32.45
2018-06-08T16:49:55.371Z,31.90
2018-06-08T16:52:24.766Z,33.58
2018-06-08T16:54:53.991Z,33.61
2018-06-08T16:57:22.842Z,34.74
2018-06-08T16:59:51.765Z,34.47
2018-06-08T17:02:20.590Z,34.92
2018-06-08T17:04:49.556Z,35.53
2018-06-08T17:07:18.727Z,34.19
2018-06-08T17:09:47.655Z,33.83
2018-06-08T17:12:16.700Z,33.34
2018-06-08T17:14:45.815Z,34.29
2018-06-08T17:17:15.657Z,35.94
2018-06-08T17:19:44.715Z,36.74
2018-06-08T17:22:13.741Z,37.73
2018-06-08T17:24:42.586Z,38.35
2018-06-08T17:27:11.493Z,39.32
2018-06-08T17:29:40.694Z,40.43
2018-06-08T17:32:09.900Z,41.46
2018-06-08T17:34:38.790Z,41.39
2018-06-08T17:37:07.724Z,41.29
2018-06-08T17:39:36.609Z,41.49
2018-06-08T17:42:06.251Z,41.68
2018-06-08T17:44:35.529Z,41.91
2018-06-08T17:47:04.979Z,42.02
2018-06-08T17:49:34.088Z,42.51
2018-06-08T17:52:03.363Z,42.67
2018-06-08T17:54:32.731Z,43.27
2018-06-08T17:57:02.001Z,43.58
2018-06-08T17:59:31.381Z,44.07
2018-06-08T18:02:00.324Z,43.83
2018-06-08T18:04:29.295Z,43.89
2018-06-08T18:06:58.716Z,44.33
2018-06-08T18:09:27.971Z,44.07
2018-06-08T18:11:57.344Z,44.12
2018-06-08T18:14:26.484Z,44.25
2018-06-08T18:16:55.408Z,44.09
2018-06-08T18:19:24.721Z,44.10
2018-06-08T18:21:53.876Z,43.83
2018-06-08T18:24:23.240Z,44.09
2018-06-08T18:26:52.330Z,43.87
2018-06-08T18:29:21.465Z,43.67
2018-06-08T18:31:50.765Z,43.64
2018-06-08T18:34:19.960Z,43.60
2018-06-08T18:36:50.347Z,43.86
2018-06-08T18:39:19.368Z,43.84
2018-06-08T18:41:48.416Z,43.85
2018-06-08T18:44:17.656Z,44.15
2018-06-08T18:46:47.314Z,44.10
2018-06-08T18:49:16.308Z,44.99
2018-06-08T18:51:45.276Z,45.00
2018-06-08T18:54:14.764Z,45.18
2018-06-08T18:56:44.160Z,45.47
2018-06-08T18:59:13.539Z,45.69
2018-06-08T19:01:44.049Z,45.98
2018-06-08T19:04:13.073Z,46.32
2018-06-08T19:06:42.967Z,46.46
2018-06-08T19:09:12.022Z,46.82
2018-06-08T19:11:41.174Z,46.87
2018-06-08T19:14:10.304Z,47.02
2018-06-08T19:16:39.259Z,46.74
2018-06-08T19:19:08.632Z,46.84
2018-06-08T19:21:39.718Z,47.32
2018-06-08T19:24:11.867Z,47.56
2018-06-08T19:26:40.919Z,47.53
2018-06-08T19:29:13.081Z,47.54
2018-06-08T19:31:41.938Z,47.90
2018-06-08T19:34:10.855Z,47.81
2018-06-08T19:36:41.973Z,47.80
2018-06-08T19:39:10.946Z,47.79
2018-06-08T19:41:39.825Z,47.88
2018-06-08T19:44:08.903Z,47.90
2018-06-08T19:46:37.755Z,48.26
2018-06-08T19:49:06.589Z,48.19
2018-06-08T19:51:35.444Z,48.51
2018-06-08T19:54:04.664Z,48.81
2018-06-08T19:56:34.908Z,48.96
2018-06-08T19:59:04.435Z,49.20
2018-06-08T20:01:33.327Z,49.25
2018-06-08T20:04:02.233Z,49.46
2018-06-08T20:06:31.223Z,49.50
2018-06-08T20:09:00.222Z,49.75
2018-06-08T20:11:29.282Z,50.44
2018-06-08T20:14:06.183Z,50.36
2018-06-08T20:16:35.675Z,50.67
2018-06-08T20:19:04.699Z,50.88
2018-06-08T20:21:33.674Z,51.04
2018-06-08T20:24:02.748Z,51.15
2018-06-08T20:26:31.598Z,51.45
2018-06-08T20:29:00.882Z,51.43
2018-06-08T20:31:30.041Z,52.01
2018-06-08T20:33:58.977Z,51.81
2018-06-08T20:36:28.727Z,51.92
2018-06-08T20:38:57.687Z,52.11
2018-06-08T20:41:26.961Z,52.40
2018-06-08T20:43:56.111Z,52.71
2018-06-08T20:46:25.401Z,52.70
2018-06-08T20:48:54.447Z,52.81
2018-06-08T20:51:23.313Z,53.05
2018-06-08T20:53:52.305Z,53.29
2018-06-08T20:56:21.382Z,53.31
2018-06-08T20:58:50.571Z,53.66
2018-06-08T21:01:19.692Z,53.62
2018-06-08T21:03:49.433Z,53.79
2018-06-08T21:06:18.467Z,53.93
2018-06-08T21:08:48.062Z,54.44
2018-06-08T21:11:17.195Z,54.23
2018-06-08T21:13:46.325Z,54.74
2018-06-08T21:16:15.183Z,54.91
2018-06-08T21:18:44.287Z,55.13
2018-06-08T21:21:13.522Z,55.48
2018-06-08T21:23:42.567Z,55.67
2018-06-08T21:26:11.474Z,55.98
2018-06-08T21:28:40.675Z,56.32
2018-06-08T21:31:09.710Z,56.39
2018-06-08T21:33:38.665Z,56.90
2018-06-08T21:36:07.813Z,56.89
2018-06-08T21:38:37.110Z,57.20
2018-06-08T21:41:06.086Z,57.23
2018-06-08T21:43:35.353Z,57.22
2018-06-08T21:46:04.611Z,57.43
2018-06-08T21:48:33.645Z,57.35
2018-06-08T21:51:02.592Z,57.50
2018-06-08T21:53:31.657Z,57.84
2018-06-08T21:56:00.596Z,58.03
2018-06-08T21:58:29.402Z,57.81
2018-06-08T22:00:59.064Z,58.10
2018-06-08T22:03:28.190Z,58.38
2018-06-08T22:05:57.418Z,58.78
2018-06-08T22:08:27.367Z,58.98
2018-06-08T22:10:56.732Z,59.50
2018-06-08T22:13:25.764Z,59.39
2018-06-08T22:15:54.967Z,59.69
2018-06-08T22:18:24.256Z,60.26
2018-06-08T22:20:53.549Z,60.33
2018-06-08T22:23:22.577Z,60.25
2018-06-08T22:25:51.652Z,60.43
2018-06-08T22:28:20.610Z,60.35
2018-06-08T22:30:51.171Z,60.83
2018-06-08T22:33:20.551Z,60.83
2018-06-08T22:35:49.481Z,61.40
2018-06-08T22:38:18.672Z,61.36
2018-06-08T22:40:47.863Z,61.97
2018-06-08T22:43:16.897Z,62.16
2018-06-08T22:45:45.728Z,61.93
2018-06-08T22:48:14.714Z,62.30
2018-06-08T22:50:43.657Z,62.30
2018-06-08T22:53:12.666Z,62.59
2018-06-08T22:55:42.264Z,62.35
2018-06-08T22:58:11.336Z,62.65
2018-06-08T23:00:40.406Z,62.97
2018-06-08T23:03:09.326Z,62.71
2018-06-08T23:05:38.072Z,62.79
2018-06-08T23:08:06.987Z,63.51
2018-06-08T23:10:36.306Z,63.33
2018-06-08T23:13:06.054Z,63.63
2018-06-08T23:15:34.995Z,63.63
2018-06-08T23:18:05.115Z,63.63
2018-06-08T23:20:34.396Z,63.74
2018-06-08T23:23:03.375Z,63.32
2018-06-08T23:25:32.529Z,62.39
2018-06-08T23:28:01.479Z,62.57
2018-06-08T23:30:30.426Z,63.36
2018-06-08T23:32:59.770Z,63.33
2018-06-08T23:35:28.586Z,63.74
2018-06-08T23:37:57.586Z,64.03
2018-06-08T23:40:26.555Z,64.23
2018-06-08T23:42:55.438Z,64.04
2018-06-08T23:45:24.475Z,64.45
2018-06-08T23:47:53.625Z,64.42
2018-06-08T23:50:22.933Z,64.68
2018-06-08T23:52:51.804Z,64.73
2018-06-08T23:55:21.008Z,64.76
2018-06-08T23:57:50.179Z,64.98
